sensor_id;sensor_type;location;lat;lon;timestamp;P1;durP1;ratioP1;P2;durP2;ratioP2
13335;SDS011;6737;51.480;11.962;2023-08-30T00:00:52;3.65;;;2.53;;
13335;SDS011;6737;51.480;11.962;2023-08-30T00:03:18;3.47;;;2.67;;
13335;SDS011;6737;51.480;11.962;2023-08-30T00:05:44;4.35;;;2.58;;
13335;SDS011;6737;51.480;11.962;2023-08-30T00:08:10;3.40;;;2.50;;
13335;SDS011;6737;51.480;11.962;2023-08-30T00:10:36;3.80;;;2.13;;
13335;SDS011;6737;51.480;11.962;2023-08-30T00:13:03;4.55;;;2.30;;
13335;SDS011;6737;51.480;11.962;2023-08-30T00:15:28;4.63;;;2.70;;
13335;SDS011;6737;51.480;11.962;2023-08-30T00:17:54;4.82;;;2.50;;
13335;SDS011;6737;51.480;11.962;2023-08-30T00:20:20;3.92;;;2.75;;
13335;SDS011;6737;51.480;11.962;2023-08-30T00:22:47;2.90;;;2.63;;
13335;SDS011;6737;51.480;11.962;2023-08-30T00:25:15;3.72;;;2.70;;
13335;SDS011;6737;51.480;11.962;2023-08-30T00:27:42;3.40;;;2.83;;
13335;SDS011;6737;51.480;11.962;2023-08-30T00:30:08;4.18;;;2.90;;
13335;SDS011;6737;51.480;11.962;2023-08-30T00:32:34;4.50;;;3.00;;
13335;SDS011;6737;51.480;11.962;2023-08-30T00:35:01;5.15;;;2.83;;
13335;SDS011;6737;51.480;11.962;2023-08-30T00:37:27;7.03;;;3.17;;
13335;SDS011;6737;51.480;11.962;2023-08-30T00:39:53;3.88;;;3.00;;
13335;SDS011;6737;51.480;11.962;2023-08-30T00:42:18;4.03;;;2.78;;
13335;SDS011;6737;51.480;11.962;2023-08-30T00:44:44;3.90;;;3.10;;
13335;SDS011;6737;51.480;11.962;2023-08-30T00:47:10;5.22;;;3.05;;
13335;SDS011;6737;51.480;11.962;2023-08-30T00:49:36;5.20;;;3.10;;
13335;SDS011;6737;51.480;11.962;2023-08-30T00:52:03;4.35;;;2.95;;
13335;SDS011;6737;51.480;11.962;2023-08-30T00:54:34;5.43;;;3.10;;
13335;SDS011;6737;51.480;11.962;2023-08-30T00:57:00;5.25;;;2.92;;
13335;SDS011;6737;51.480;11.962;2023-08-30T00:59:27;4.68;;;2.60;;
13335;SDS011;6737;51.480;11.962;2023-08-30T01:01:55;4.57;;;3.10;;
13335;SDS011;6737;51.480;11.962;2023-08-30T01:04:21;5.18;;;2.97;;
13335;SDS011;6737;51.480;11.962;2023-08-30T01:06:48;7.38;;;3.50;;
13335;SDS011;6737;51.480;11.962;2023-08-30T01:09:14;3.80;;;2.92;;
13335;SDS011;6737;51.480;11.962;2023-08-30T01:17:32;5.00;;;3.13;;
13335;SDS011;6737;51.480;11.962;2023-08-30T01:20:00;3.55;;;3.20;;
13335;SDS011;6737;51.480;11.962;2023-08-30T01:23:17;6.00;;;3.30;;
13335;SDS011;6737;51.480;11.962;2023-08-30T01:28:29;7.45;;;3.33;;
13335;SDS011;6737;51.480;11.962;2023-08-30T01:30:58;4.15;;;2.97;;
13335;SDS011;6737;51.480;11.962;2023-08-30T01:33:25;5.07;;;3.10;;
13335;SDS011;6737;51.480;11.962;2023-08-30T01:35:55;6.30;;;3.30;;
13335;SDS011;6737;51.480;11.962;2023-08-30T01:38:23;6.45;;;3.10;;
13335;SDS011;6737;51.480;11.962;2023-08-30T01:40:52;5.50;;;2.67;;
13335;SDS011;6737;51.480;11.962;2023-08-30T01:43:20;4.32;;;3.10;;
13335;SDS011;6737;51.480;11.962;2023-08-30T01:45:47;4.25;;;2.95;;
13335;SDS011;6737;51.480;11.962;2023-08-30T01:48:14;4.88;;;3.40;;
13335;SDS011;6737;51.480;11.962;2023-08-30T01:50:42;4.22;;;3.17;;
13335;SDS011;6737;51.480;11.962;2023-08-30T01:53:12;3.70;;;3.22;;
13335;SDS011;6737;51.480;11.962;2023-08-30T01:55:39;4.25;;;3.45;;
13335;SDS011;6737;51.480;11.962;2023-08-30T01:58:06;4.70;;;3.22;;
13335;SDS011;6737;51.480;11.962;2023-08-30T02:00:32;5.10;;;3.10;;
13335;SDS011;6737;51.480;11.962;2023-08-30T02:02:58;6.70;;;3.53;;
13335;SDS011;6737;51.480;11.962;2023-08-30T02:05:24;4.57;;;3.63;;
13335;SDS011;6737;51.480;11.962;2023-08-30T02:10:48;4.90;;;3.40;;
13335;SDS011;6737;51.480;11.962;2023-08-30T02:13:19;9.60;;;3.67;;
13335;SDS011;6737;51.480;11.962;2023-08-30T02:15:52;6.30;;;3.60;;
13335;SDS011;6737;51.480;11.962;2023-08-30T02:18:20;5.03;;;3.15;;
13335;SDS011;6737;51.480;11.962;2023-08-30T02:20:45;7.82;;;3.30;;
13335;SDS011;6737;51.480;11.962;2023-08-30T02:23:12;5.38;;;3.45;;
13335;SDS011;6737;51.480;11.962;2023-08-30T02:25:37;5.75;;;3.42;;
13335;SDS011;6737;51.480;11.962;2023-08-30T02:28:03;7.93;;;3.40;;
13335;SDS011;6737;51.480;11.962;2023-08-30T02:30:29;4.72;;;4.00;;
13335;SDS011;6737;51.480;11.962;2023-08-30T02:32:55;5.90;;;3.60;;
13335;SDS011;6737;51.480;11.962;2023-08-30T02:35:20;6.18;;;3.40;;
13335;SDS011;6737;51.480;11.962;2023-08-30T02:37:46;5.07;;;3.40;;
13335;SDS011;6737;51.480;11.962;2023-08-30T02:40:12;4.53;;;3.53;;
13335;SDS011;6737;51.480;11.962;2023-08-30T02:42:38;6.20;;;3.50;;
13335;SDS011;6737;51.480;11.962;2023-08-30T02:45:03;4.47;;;3.45;;
13335;SDS011;6737;51.480;11.962;2023-08-30T02:47:29;6.45;;;3.88;;
13335;SDS011;6737;51.480;11.962;2023-08-30T02:49:55;4.70;;;3.35;;
13335;SDS011;6737;51.480;11.962;2023-08-30T02:52:21;6.40;;;3.15;;
13335;SDS011;6737;51.480;11.962;2023-08-30T02:54:47;5.10;;;3.40;;
13335;SDS011;6737;51.480;11.962;2023-08-30T02:57:12;6.28;;;3.70;;
13335;SDS011;6737;51.480;11.962;2023-08-30T02:59:38;5.97;;;3.58;;
13335;SDS011;6737;51.480;11.962;2023-08-30T03:02:04;5.20;;;3.70;;
13335;SDS011;6737;51.480;11.962;2023-08-30T03:04:30;4.60;;;4.00;;
13335;SDS011;6737;51.480;11.962;2023-08-30T03:06:56;4.50;;;4.10;;
13335;SDS011;6737;51.480;11.962;2023-08-30T03:09:21;8.43;;;4.72;;
13335;SDS011;6737;51.480;11.962;2023-08-30T03:11:47;7.35;;;4.95;;
13335;SDS011;6737;51.480;11.962;2023-08-30T03:14:13;7.23;;;4.17;;
13335;SDS011;6737;51.480;11.962;2023-08-30T03:16:40;4.70;;;4.30;;
13335;SDS011;6737;51.480;11.962;2023-08-30T03:19:06;5.82;;;3.88;;
13335;SDS011;6737;51.480;11.962;2023-08-30T03:21:32;8.07;;;4.60;;
13335;SDS011;6737;51.480;11.962;2023-08-30T03:23:58;5.70;;;4.20;;
13335;SDS011;6737;51.480;11.962;2023-08-30T03:26:23;4.40;;;3.90;;
13335;SDS011;6737;51.480;11.962;2023-08-30T03:28:49;6.85;;;4.10;;
13335;SDS011;6737;51.480;11.962;2023-08-30T03:31:16;4.83;;;4.33;;
13335;SDS011;6737;51.480;11.962;2023-08-30T03:33:43;6.60;;;4.50;;
13335;SDS011;6737;51.480;11.962;2023-08-30T03:36:10;5.40;;;4.70;;
13335;SDS011;6737;51.480;11.962;2023-08-30T03:38:37;6.20;;;4.60;;
13335;SDS011;6737;51.480;11.962;2023-08-30T03:41:03;4.60;;;4.10;;
13335;SDS011;6737;51.480;11.962;2023-08-30T03:43:30;5.80;;;4.63;;
13335;SDS011;6737;51.480;11.962;2023-08-30T03:45:59;5.33;;;4.13;;
13335;SDS011;6737;51.480;11.962;2023-08-30T03:48:26;7.57;;;4.28;;
13335;SDS011;6737;51.480;11.962;2023-08-30T03:50:53;5.63;;;4.97;;
13335;SDS011;6737;51.480;11.962;2023-08-30T03:53:20;5.53;;;4.70;;
13335;SDS011;6737;51.480;11.962;2023-08-30T03:55:46;7.63;;;4.57;;
13335;SDS011;6737;51.480;11.962;2023-08-30T03:58:12;5.07;;;4.57;;
13335;SDS011;6737;51.480;11.962;2023-08-30T04:00:38;4.97;;;4.55;;
13335;SDS011;6737;51.480;11.962;2023-08-30T04:03:05;5.33;;;4.80;;
13335;SDS011;6737;51.480;11.962;2023-08-30T04:05:34;7.07;;;4.90;;
13335;SDS011;6737;51.480;11.962;2023-08-30T04:08:01;5.77;;;4.53;;
13335;SDS011;6737;51.480;11.962;2023-08-30T04:10:27;6.83;;;4.57;;
13335;SDS011;6737;51.480;11.962;2023-08-30T04:12:53;5.77;;;4.77;;
13335;SDS011;6737;51.480;11.962;2023-08-30T04:15:19;6.13;;;4.87;;
13335;SDS011;6737;51.480;11.962;2023-08-30T04:17:45;6.63;;;5.00;;
13335;SDS011;6737;51.480;11.962;2023-08-30T04:20:10;6.83;;;4.70;;
13335;SDS011;6737;51.480;11.962;2023-08-30T04:22:36;5.83;;;4.70;;
13335;SDS011;6737;51.480;11.962;2023-08-30T04:25:03;7.07;;;5.37;;
13335;SDS011;6737;51.480;11.962;2023-08-30T04:27:30;5.63;;;5.10;;
13335;SDS011;6737;51.480;11.962;2023-08-30T04:29:56;7.37;;;5.33;;
13335;SDS011;6737;51.480;11.962;2023-08-30T04:32:21;9.57;;;5.40;;
13335;SDS011;6737;51.480;11.962;2023-08-30T04:34:47;8.47;;;5.00;;
13335;SDS011;6737;51.480;11.962;2023-08-30T04:37:13;6.85;;;5.32;;
13335;SDS011;6737;51.480;11.962;2023-08-30T04:39:40;7.33;;;5.30;;
13335;SDS011;6737;51.480;11.962;2023-08-30T04:42:05;7.87;;;5.30;;
13335;SDS011;6737;51.480;11.962;2023-08-30T04:44:31;6.32;;;5.72;;
13335;SDS011;6737;51.480;11.962;2023-08-30T04:46:57;6.40;;;5.70;;
13335;SDS011;6737;51.480;11.962;2023-08-30T04:49:23;6.37;;;5.63;;
13335;SDS011;6737;51.480;11.962;2023-08-30T04:51:50;7.17;;;5.63;;
13335;SDS011;6737;51.480;11.962;2023-08-30T04:54:16;8.17;;;5.93;;
13335;SDS011;6737;51.480;11.962;2023-08-30T04:56:42;8.63;;;5.93;;
13335;SDS011;6737;51.480;11.962;2023-08-30T04:59:08;6.47;;;5.83;;
13335;SDS011;6737;51.480;11.962;2023-08-30T05:01:33;8.55;;;6.00;;
13335;SDS011;6737;51.480;11.962;2023-08-30T05:03:59;6.83;;;5.77;;
13335;SDS011;6737;51.480;11.962;2023-08-30T05:06:26;6.90;;;5.95;;
13335;SDS011;6737;51.480;11.962;2023-08-30T05:08:52;7.47;;;6.00;;
13335;SDS011;6737;51.480;11.962;2023-08-30T05:11:17;7.93;;;6.30;;
13335;SDS011;6737;51.480;11.962;2023-08-30T05:13:43;7.50;;;6.77;;
13335;SDS011;6737;51.480;11.962;2023-08-30T05:16:09;7.47;;;6.00;;
13335;SDS011;6737;51.480;11.962;2023-08-30T05:18:34;7.73;;;6.93;;
13335;SDS011;6737;51.480;11.962;2023-08-30T05:21:00;9.73;;;7.13;;
13335;SDS011;6737;51.480;11.962;2023-08-30T05:23:29;9.25;;;7.38;;
13335;SDS011;6737;51.480;11.962;2023-08-30T05:25:54;8.57;;;6.87;;
13335;SDS011;6737;51.480;11.962;2023-08-30T05:28:20;7.63;;;6.83;;
13335;SDS011;6737;51.480;11.962;2023-08-30T05:30:46;8.77;;;7.33;;
13335;SDS011;6737;51.480;11.962;2023-08-30T05:33:11;7.70;;;6.90;;
13335;SDS011;6737;51.480;11.962;2023-08-30T05:35:37;10.07;;;7.70;;
13335;SDS011;6737;51.480;11.962;2023-08-30T05:38:03;8.82;;;7.40;;
13335;SDS011;6737;51.480;11.962;2023-08-30T05:40:29;7.87;;;7.17;;
13335;SDS011;6737;51.480;11.962;2023-08-30T05:42:54;9.18;;;7.60;;
13335;SDS011;6737;51.480;11.962;2023-08-30T05:45:20;8.38;;;7.10;;
13335;SDS011;6737;51.480;11.962;2023-08-30T05:47:46;8.47;;;7.40;;
13335;SDS011;6737;51.480;11.962;2023-08-30T05:50:13;8.55;;;7.40;;
13335;SDS011;6737;51.480;11.962;2023-08-30T05:52:39;8.40;;;7.55;;
13335;SDS011;6737;51.480;11.962;2023-08-30T05:55:10;10.57;;;7.47;;
13335;SDS011;6737;51.480;11.962;2023-08-30T05:57:35;8.68;;;7.45;;
13335;SDS011;6737;51.480;11.962;2023-08-30T06:00:02;10.68;;;7.95;;
13335;SDS011;6737;51.480;11.962;2023-08-30T06:02:30;8.27;;;7.37;;
13335;SDS011;6737;51.480;11.962;2023-08-30T06:04:56;8.05;;;7.25;;
13335;SDS011;6737;51.480;11.962;2023-08-30T06:07:21;10.43;;;7.80;;
13335;SDS011;6737;51.480;11.962;2023-08-30T06:09:47;8.52;;;7.38;;
13335;SDS011;6737;51.480;11.962;2023-08-30T06:12:13;8.10;;;7.40;;
13335;SDS011;6737;51.480;11.962;2023-08-30T06:14:39;9.10;;;7.07;;
13335;SDS011;6737;51.480;11.962;2023-08-30T06:17:04;12.25;;;7.55;;
13335;SDS011;6737;51.480;11.962;2023-08-30T06:19:30;9.50;;;7.63;;
13335;SDS011;6737;51.480;11.962;2023-08-30T06:21:56;9.65;;;8.00;;
13335;SDS011;6737;51.480;11.962;2023-08-30T06:24:22;10.82;;;7.50;;
13335;SDS011;6737;51.480;11.962;2023-08-30T06:26:47;8.60;;;7.55;;
13335;SDS011;6737;51.480;11.962;2023-08-30T06:29:13;7.82;;;7.05;;
13335;SDS011;6737;51.480;11.962;2023-08-30T06:31:39;9.65;;;7.07;;
13335;SDS011;6737;51.480;11.962;2023-08-30T06:34:06;9.25;;;7.70;;
13335;SDS011;6737;51.480;11.962;2023-08-30T06:36:32;9.75;;;8.00;;
13335;SDS011;6737;51.480;11.962;2023-08-30T06:38:58;9.15;;;8.25;;
13335;SDS011;6737;51.480;11.962;2023-08-30T06:41:23;10.60;;;7.57;;
13335;SDS011;6737;51.480;11.962;2023-08-30T06:43:49;8.38;;;6.90;;
13335;SDS011;6737;51.480;11.962;2023-08-30T06:46:15;8.13;;;7.28;;
13335;SDS011;6737;51.480;11.962;2023-08-30T06:48:41;8.07;;;7.30;;
13335;SDS011;6737;51.480;11.962;2023-08-30T06:51:06;7.88;;;6.70;;
13335;SDS011;6737;51.480;11.962;2023-08-30T06:53:32;7.70;;;6.90;;
13335;SDS011;6737;51.480;11.962;2023-08-30T06:55:59;8.48;;;6.85;;
13335;SDS011;6737;51.480;11.962;2023-08-30T06:58:25;10.98;;;7.07;;
13335;SDS011;6737;51.480;11.962;2023-08-30T07:00:52;9.35;;;6.65;;
13335;SDS011;6737;51.480;11.962;2023-08-30T07:03:18;7.53;;;6.63;;
13335;SDS011;6737;51.480;11.962;2023-08-30T07:05:44;6.82;;;6.15;;
13335;SDS011;6737;51.480;11.962;2023-08-30T07:08:13;9.57;;;5.95;;
13335;SDS011;6737;51.480;11.962;2023-08-30T07:10:39;12.23;;;7.35;;
13335;SDS011;6737;51.480;11.962;2023-08-30T07:13:05;7.53;;;6.35;;
13335;SDS011;6737;51.480;11.962;2023-08-30T07:15:38;7.22;;;5.65;;
13335;SDS011;6737;51.480;11.962;2023-08-30T07:18:05;7.20;;;5.80;;
13335;SDS011;6737;51.480;11.962;2023-08-30T07:20:31;7.90;;;6.00;;
13335;SDS011;6737;51.480;11.962;2023-08-30T07:22:57;9.48;;;6.00;;
13335;SDS011;6737;51.480;11.962;2023-08-30T07:25:23;6.47;;;5.88;;
13335;SDS011;6737;51.480;11.962;2023-08-30T07:27:49;7.85;;;5.28;;
13335;SDS011;6737;51.480;11.962;2023-08-30T07:30:15;6.68;;;5.47;;
13335;SDS011;6737;51.480;11.962;2023-08-30T07:32:41;9.00;;;5.53;;
13335;SDS011;6737;51.480;11.962;2023-08-30T07:35:07;8.00;;;5.18;;
13335;SDS011;6737;51.480;11.962;2023-08-30T07:37:34;7.13;;;4.55;;
13335;SDS011;6737;51.480;11.962;2023-08-30T07:40:00;8.50;;;4.82;;
13335;SDS011;6737;51.480;11.962;2023-08-30T07:42:29;7.15;;;4.68;;
13335;SDS011;6737;51.480;11.962;2023-08-30T07:44:55;5.47;;;4.45;;
13335;SDS011;6737;51.480;11.962;2023-08-30T07:47:21;5.22;;;4.70;;
13335;SDS011;6737;51.480;11.962;2023-08-30T07:49:47;9.32;;;4.47;;
13335;SDS011;6737;51.480;11.962;2023-08-30T07:52:12;8.98;;;4.40;;
13335;SDS011;6737;51.480;11.962;2023-08-30T07:54:39;7.53;;;4.57;;
13335;SDS011;6737;51.480;11.962;2023-08-30T07:57:05;5.82;;;4.03;;
13335;SDS011;6737;51.480;11.962;2023-08-30T07:59:37;5.95;;;4.25;;
13335;SDS011;6737;51.480;11.962;2023-08-30T08:02:06;6.93;;;4.75;;
13335;SDS011;6737;51.480;11.962;2023-08-30T08:04:35;5.40;;;4.35;;
13335;SDS011;6737;51.480;11.962;2023-08-30T08:07:01;6.97;;;4.05;;
13335;SDS011;6737;51.480;11.962;2023-08-30T08:09:28;5.50;;;4.32;;
13335;SDS011;6737;51.480;11.962;2023-08-30T08:11:54;5.30;;;4.05;;
13335;SDS011;6737;51.480;11.962;2023-08-30T08:14:21;5.80;;;3.90;;
13335;SDS011;6737;51.480;11.962;2023-08-30T08:16:50;5.80;;;3.45;;
13335;SDS011;6737;51.480;11.962;2023-08-30T08:19:16;5.85;;;3.38;;
13335;SDS011;6737;51.480;11.962;2023-08-30T08:21:42;4.30;;;3.28;;
13335;SDS011;6737;51.480;11.962;2023-08-30T08:24:08;4.78;;;3.60;;
13335;SDS011;6737;51.480;11.962;2023-08-30T08:26:34;6.50;;;4.28;;
13335;SDS011;6737;51.480;11.962;2023-08-30T08:28:59;3.65;;;3.05;;
13335;SDS011;6737;51.480;11.962;2023-08-30T08:31:25;5.85;;;2.95;;
13335;SDS011;6737;51.480;11.962;2023-08-30T08:34:06;4.32;;;2.90;;
13335;SDS011;6737;51.480;11.962;2023-08-30T08:36:37;4.40;;;2.50;;
13335;SDS011;6737;51.480;11.962;2023-08-30T08:39:03;5.18;;;2.50;;
13335;SDS011;6737;51.480;11.962;2023-08-30T08:41:32;3.00;;;2.20;;
13335;SDS011;6737;51.480;11.962;2023-08-30T08:44:05;5.30;;;2.50;;
13335;SDS011;6737;51.480;11.962;2023-08-30T08:46:32;4.80;;;2.28;;
13335;SDS011;6737;51.480;11.962;2023-08-30T08:49:02;3.40;;;2.22;;
13335;SDS011;6737;51.480;11.962;2023-08-30T08:51:35;3.80;;;2.03;;
13335;SDS011;6737;51.480;11.962;2023-08-30T08:54:02;2.35;;;2.00;;
13335;SDS011;6737;51.480;11.962;2023-08-30T08:56:30;3.17;;;1.90;;
13335;SDS011;6737;51.480;11.962;2023-08-30T08:58:57;3.25;;;2.40;;
13335;SDS011;6737;51.480;11.962;2023-08-30T09:01:24;3.65;;;2.20;;
13335;SDS011;6737;51.480;11.962;2023-08-30T09:03:50;2.55;;;2.10;;
13335;SDS011;6737;51.480;11.962;2023-08-30T09:06:17;3.33;;;2.00;;
13335;SDS011;6737;51.480;11.962;2023-08-30T09:08:43;3.30;;;2.15;;
13335;SDS011;6737;51.480;11.962;2023-08-30T09:11:09;5.13;;;1.98;;
13335;SDS011;6737;51.480;11.962;2023-08-30T09:13:35;2.63;;;1.70;;
13335;SDS011;6737;51.480;11.962;2023-08-30T09:16:01;5.38;;;1.88;;
13335;SDS011;6737;51.480;11.962;2023-08-30T09:18:30;3.33;;;1.90;;
13335;SDS011;6737;51.480;11.962;2023-08-30T09:21:09;2.85;;;1.77;;
13335;SDS011;6737;51.480;11.962;2023-08-30T09:23:35;2.88;;;1.73;;
13335;SDS011;6737;51.480;11.962;2023-08-30T09:26:02;3.58;;;1.98;;
13335;SDS011;6737;51.480;11.962;2023-08-30T09:28:28;3.22;;;1.80;;
13335;SDS011;6737;51.480;11.962;2023-08-30T09:30:56;1.80;;;1.60;;
13335;SDS011;6737;51.480;11.962;2023-08-30T09:33:29;3.90;;;2.10;;
13335;SDS011;6737;51.480;11.962;2023-08-30T09:36:00;8.23;;;2.00;;
13335;SDS011;6737;51.480;11.962;2023-08-30T09:38:26;5.28;;;1.90;;
13335;SDS011;6737;51.480;11.962;2023-08-30T09:40:52;3.53;;;1.60;;
13335;SDS011;6737;51.480;11.962;2023-08-30T09:43:29;1.65;;;1.40;;
13335;SDS011;6737;51.480;11.962;2023-08-30T09:45:55;1.63;;;1.50;;
13335;SDS011;6737;51.480;11.962;2023-08-30T09:48:22;3.60;;;1.40;;
13335;SDS011;6737;51.480;11.962;2023-08-30T09:50:53;1.80;;;1.40;;
13335;SDS011;6737;51.480;11.962;2023-08-30T09:53:21;1.65;;;1.42;;
13335;SDS011;6737;51.480;11.962;2023-08-30T09:55:54;2.25;;;1.40;;
13335;SDS011;6737;51.480;11.962;2023-08-30T09:58:23;2.28;;;1.40;;
13335;SDS011;6737;51.480;11.962;2023-08-30T10:00:50;1.30;;;1.20;;
13335;SDS011;6737;51.480;11.962;2023-08-30T10:03:16;2.75;;;1.40;;
13335;SDS011;6737;51.480;11.962;2023-08-30T10:05:44;1.98;;;1.45;;
13335;SDS011;6737;51.480;11.962;2023-08-30T10:08:11;1.92;;;1.45;;
13335;SDS011;6737;51.480;11.962;2023-08-30T10:10:39;2.45;;;1.50;;
13335;SDS011;6737;51.480;11.962;2023-08-30T10:13:05;2.92;;;1.40;;
13335;SDS011;6737;51.480;11.962;2023-08-30T10:15:35;2.50;;;1.73;;
13335;SDS011;6737;51.480;11.962;2023-08-30T10:18:06;4.93;;;1.80;;
13335;SDS011;6737;51.480;11.962;2023-08-30T10:20:34;1.95;;;1.60;;
13335;SDS011;6737;51.480;11.962;2023-08-30T10:23:03;4.53;;;1.63;;
13335;SDS011;6737;51.480;11.962;2023-08-30T10:25:29;2.35;;;1.60;;
13335;SDS011;6737;51.480;11.962;2023-08-30T10:27:57;2.42;;;1.60;;
13335;SDS011;6737;51.480;11.962;2023-08-30T10:30:24;2.70;;;1.70;;
13335;SDS011;6737;51.480;11.962;2023-08-30T10:32:51;1.63;;;1.50;;
13335;SDS011;6737;51.480;11.962;2023-08-30T10:35:17;3.38;;;1.70;;
13335;SDS011;6737;51.480;11.962;2023-08-30T10:37:57;2.92;;;1.50;;
13335;SDS011;6737;51.480;11.962;2023-08-30T10:40:24;2.35;;;1.50;;
13335;SDS011;6737;51.480;11.962;2023-08-30T10:43:03;4.03;;;1.45;;
13335;SDS011;6737;51.480;11.962;2023-08-30T10:45:29;2.13;;;1.40;;
13335;SDS011;6737;51.480;11.962;2023-08-30T10:47:56;3.47;;;1.65;;
13335;SDS011;6737;51.480;11.962;2023-08-30T10:50:30;1.80;;;1.27;;
13335;SDS011;6737;51.480;11.962;2023-08-30T10:52:57;1.50;;;1.40;;
13335;SDS011;6737;51.480;11.962;2023-08-30T10:55:23;2.50;;;1.40;;
13335;SDS011;6737;51.480;11.962;2023-08-30T10:58:00;1.75;;;1.50;;
13335;SDS011;6737;51.480;11.962;2023-08-30T11:00:28;2.03;;;1.40;;
13335;SDS011;6737;51.480;11.962;2023-08-30T11:02:55;1.42;;;1.20;;
13335;SDS011;6737;51.480;11.962;2023-08-30T11:05:25;2.42;;;1.70;;
13335;SDS011;6737;51.480;11.962;2023-08-30T11:07:53;2.97;;;1.25;;
13335;SDS011;6737;51.480;11.962;2023-08-30T11:10:19;2.88;;;1.42;;
13335;SDS011;6737;51.480;11.962;2023-08-30T11:12:46;3.50;;;1.40;;
13335;SDS011;6737;51.480;11.962;2023-08-30T11:15:17;1.30;;;1.20;;
13335;SDS011;6737;51.480;11.962;2023-08-30T11:17:43;2.55;;;1.38;;
13335;SDS011;6737;51.480;11.962;2023-08-30T11:20:10;1.80;;;1.25;;
13335;SDS011;6737;51.480;11.962;2023-08-30T11:22:37;1.92;;;1.40;;
13335;SDS011;6737;51.480;11.962;2023-08-30T11:25:24;2.03;;;1.20;;
13335;SDS011;6737;51.480;11.962;2023-08-30T11:27:50;1.63;;;1.13;;
13335;SDS011;6737;51.480;11.962;2023-08-30T11:30:26;1.50;;;1.10;;
13335;SDS011;6737;51.480;11.962;2023-08-30T11:32:52;2.67;;;1.30;;
13335;SDS011;6737;51.480;11.962;2023-08-30T11:35:20;2.17;;;1.20;;
13335;SDS011;6737;51.480;11.962;2023-08-30T11:37:47;1.65;;;1.25;;
13335;SDS011;6737;51.480;11.962;2023-08-30T11:40:14;2.45;;;1.20;;
13335;SDS011;6737;51.480;11.962;2023-08-30T11:42:40;2.00;;;1.30;;
13335;SDS011;6737;51.480;11.962;2023-08-30T11:45:08;3.90;;;1.42;;
13335;SDS011;6737;51.480;11.962;2023-08-30T11:47:35;1.88;;;1.30;;
13335;SDS011;6737;51.480;11.962;2023-08-30T11:50:01;2.25;;;1.10;;
13335;SDS011;6737;51.480;11.962;2023-08-30T11:52:28;2.15;;;1.38;;
13335;SDS011;6737;51.480;11.962;2023-08-30T11:54:56;2.55;;;1.23;;
13335;SDS011;6737;51.480;11.962;2023-08-30T11:57:22;1.27;;;1.17;;
13335;SDS011;6737;51.480;11.962;2023-08-30T11:59:48;4.10;;;1.33;;
13335;SDS011;6737;51.480;11.962;2023-08-30T12:02:15;1.63;;;1.17;;
13335;SDS011;6737;51.480;11.962;2023-08-30T12:04:43;2.15;;;1.13;;
13335;SDS011;6737;51.480;11.962;2023-08-30T12:07:20;1.88;;;1.30;;
13335;SDS011;6737;51.480;11.962;2023-08-30T12:09:51;3.72;;;1.20;;
13335;SDS011;6737;51.480;11.962;2023-08-30T12:12:17;1.40;;;1.20;;
13335;SDS011;6737;51.480;11.962;2023-08-30T12:14:43;1.40;;;1.30;;
13335;SDS011;6737;51.480;11.962;2023-08-30T12:17:09;1.67;;;1.30;;
13335;SDS011;6737;51.480;11.962;2023-08-30T12:19:37;1.58;;;1.02;;
13335;SDS011;6737;51.480;11.962;2023-08-30T12:22:06;1.30;;;1.20;;
13335;SDS011;6737;51.480;11.962;2023-08-30T12:24:45;2.00;;;1.20;;
13335;SDS011;6737;51.480;11.962;2023-08-30T12:27:12;2.30;;;1.17;;
13335;SDS011;6737;51.480;11.962;2023-08-30T12:29:38;1.60;;;1.27;;
13335;SDS011;6737;51.480;11.962;2023-08-30T12:32:06;3.40;;;1.10;;
13335;SDS011;6737;51.480;11.962;2023-08-30T12:34:32;4.72;;;1.35;;
13335;SDS011;6737;51.480;11.962;2023-08-30T12:36:59;1.65;;;1.30;;
13335;SDS011;6737;51.480;11.962;2023-08-30T12:39:27;1.85;;;1.20;;
13335;SDS011;6737;51.480;11.962;2023-08-30T12:41:53;2.40;;;1.20;;
13335;SDS011;6737;51.480;11.962;2023-08-30T12:44:19;1.80;;;1.20;;
13335;SDS011;6737;51.480;11.962;2023-08-30T12:46:44;2.15;;;1.13;;
13335;SDS011;6737;51.480;11.962;2023-08-30T12:49:10;1.30;;;1.20;;
13335;SDS011;6737;51.480;11.962;2023-08-30T12:51:36;1.20;;;1.10;;
13335;SDS011;6737;51.480;11.962;2023-08-30T12:54:02;2.40;;;1.10;;
13335;SDS011;6737;51.480;11.962;2023-08-30T12:56:28;2.78;;;1.20;;
13335;SDS011;6737;51.480;11.962;2023-08-30T12:58:54;2.72;;;1.30;;
13335;SDS011;6737;51.480;11.962;2023-08-30T13:01:20;2.28;;;1.20;;
13335;SDS011;6737;51.480;11.962;2023-08-30T13:03:46;4.18;;;1.30;;
13335;SDS011;6737;51.480;11.962;2023-08-30T13:06:11;2.58;;;1.20;;
13335;SDS011;6737;51.480;11.962;2023-08-30T13:08:37;1.55;;;1.25;;
13335;SDS011;6737;51.480;11.962;2023-08-30T13:11:03;2.00;;;1.40;;
13335;SDS011;6737;51.480;11.962;2023-08-30T13:13:29;1.40;;;1.27;;
13335;SDS011;6737;51.480;11.962;2023-08-30T13:15:55;1.83;;;1.30;;
13335;SDS011;6737;51.480;11.962;2023-08-30T13:18:21;1.42;;;1.13;;
13335;SDS011;6737;51.480;11.962;2023-08-30T13:20:47;1.52;;;1.30;;
13335;SDS011;6737;51.480;11.962;2023-08-30T13:23:12;2.05;;;1.23;;
13335;SDS011;6737;51.480;11.962;2023-08-30T13:25:39;2.45;;;1.42;;
13335;SDS011;6737;51.480;11.962;2023-08-30T13:28:05;1.90;;;1.25;;
13335;SDS011;6737;51.480;11.962;2023-08-30T13:30:32;1.70;;;1.40;;
13335;SDS011;6737;51.480;11.962;2023-08-30T13:32:58;1.90;;;1.30;;
13335;SDS011;6737;51.480;11.962;2023-08-30T13:35:24;1.42;;;1.33;;
13335;SDS011;6737;51.480;11.962;2023-08-30T13:37:50;2.85;;;1.60;;
13335;SDS011;6737;51.480;11.962;2023-08-30T13:40:16;2.00;;;1.60;;
13335;SDS011;6737;51.480;11.962;2023-08-30T13:42:42;2.58;;;1.60;;
13335;SDS011;6737;51.480;11.962;2023-08-30T13:45:08;2.70;;;1.55;;
13335;SDS011;6737;51.480;11.962;2023-08-30T13:47:38;1.98;;;1.70;;
13335;SDS011;6737;51.480;11.962;2023-08-30T13:50:04;1.92;;;1.60;;
13335;SDS011;6737;51.480;11.962;2023-08-30T13:52:30;2.70;;;1.80;;
13335;SDS011;6737;51.480;11.962;2023-08-30T13:54:58;3.45;;;1.67;;
13335;SDS011;6737;51.480;11.962;2023-08-30T13:57:24;1.77;;;1.40;;
13335;SDS011;6737;51.480;11.962;2023-08-30T13:59:50;3.05;;;1.70;;
13335;SDS011;6737;51.480;11.962;2023-08-30T14:02:16;2.35;;;1.70;;
13335;SDS011;6737;51.480;11.962;2023-08-30T14:04:41;3.00;;;1.80;;
13335;SDS011;6737;51.480;11.962;2023-08-30T14:07:07;3.33;;;1.70;;
13335;SDS011;6737;51.480;11.962;2023-08-30T14:09:34;2.88;;;1.80;;
13335;SDS011;6737;51.480;11.962;2023-08-30T14:12:00;1.75;;;1.65;;
13335;SDS011;6737;51.480;11.962;2023-08-30T14:14:29;1.70;;;1.60;;
13335;SDS011;6737;51.480;11.962;2023-08-30T14:16:55;2.65;;;1.90;;
13335;SDS011;6737;51.480;11.962;2023-08-30T14:19:20;2.13;;;1.70;;
13335;SDS011;6737;51.480;11.962;2023-08-30T14:21:46;2.40;;;1.70;;
13335;SDS011;6737;51.480;11.962;2023-08-30T14:24:12;5.20;;;1.75;;
13335;SDS011;6737;51.480;11.962;2023-08-30T14:26:38;2.83;;;1.50;;
13335;SDS011;6737;51.480;11.962;2023-08-30T14:29:04;2.78;;;1.70;;
13335;SDS011;6737;51.480;11.962;2023-08-30T14:31:29;2.15;;;1.80;;
13335;SDS011;6737;51.480;11.962;2023-08-30T14:33:55;2.28;;;1.60;;
13335;SDS011;6737;51.480;11.962;2023-08-30T14:36:24;2.80;;;1.58;;
13335;SDS011;6737;51.480;11.962;2023-08-30T14:38:50;2.35;;;1.85;;
13335;SDS011;6737;51.480;11.962;2023-08-30T14:41:16;3.97;;;1.70;;
13335;SDS011;6737;51.480;11.962;2023-08-30T14:43:43;1.98;;;1.77;;
13335;SDS011;6737;51.480;11.962;2023-08-30T14:46:09;3.15;;;1.90;;
13335;SDS011;6737;51.480;11.962;2023-08-30T14:48:34;4.20;;;1.80;;
13335;SDS011;6737;51.480;11.962;2023-08-30T14:51:01;2.58;;;1.70;;
13335;SDS011;6737;51.480;11.962;2023-08-30T14:53:29;3.00;;;1.73;;
13335;SDS011;6737;51.480;11.962;2023-08-30T14:55:55;2.72;;;1.80;;
13335;SDS011;6737;51.480;11.962;2023-08-30T14:58:21;2.47;;;1.50;;